Time;durP1;ratioP1;P1;durP2;ratioP2;P2;SDS_P1;SDS_P2;PMS_P1;PMS_P2;Temp;Humidity;BMP_temperature;BMP_pressure;BME280_temperature;BME280_humidity;BME280_pressure;Samples;Min_cycle;Max_cycle;Signal;HPM_P1;HPM_P2
2020/12/19 00:02:16;;;;;;;3.40;3.10;;;5.90;99.90;;;;;;5036285;28;20470;-63
2020/12/19 00:04:42;;;;;;;4.77;3.70;;;5.80;99.90;;;;;;5036289;28;20981;-63
2020/12/19 00:07:09;;;;;;;3.90;3.40;;;5.70;99.90;;;;;;5036267;28;20446;-63
2020/12/19 00:09:36;;;;;;;4.10;3.53;;;5.70;99.90;;;;;;5036104;28;20450;-63
2020/12/19 00:12:02;;;;;;;4.23;3.83;;;5.60;99.90;;;;;;5036101;28;20466;-63
2020/12/19 00:14:29;;;;;;;4.27;3.20;;;5.60;99.90;;;;;;5036119;28;20450;-63
2020/12/19 00:16:55;;;;;;;4.67;3.40;;;5.50;99.90;;;;;;5036056;28;20454;-63
2020/12/19 00:19:22;;;;;;;4.30;3.90;;;5.50;99.90;;;;;;5036069;28;20450;-63
2020/12/19 00:21:48;;;;;;;4.13;3.63;;;5.50;99.90;;;;;;5035970;28;20526;-63
2020/12/19 00:24:14;;;;;;;5.07;3.80;;;5.60;99.90;;;;;;5035638;28;20962;-63
2020/12/19 00:26:42;;;;;;;4.50;3.43;;;5.60;99.90;;;;;;5035578;28;20489;-62
2020/12/19 00:29:10;;;;;;;5.80;3.40;;;5.60;99.90;;;;;;5035565;28;20946;-63
2020/12/19 00:31:37;;;;;;;3.47;3.00;;;5.60;99.90;;;;;;5035684;28;20853;-63
2020/12/19 00:34:04;;;;;;;5.27;3.50;;;5.50;99.90;;;;;;5035764;28;20446;-63
2020/12/19 00:36:31;;;;;;;3.20;2.93;;;5.50;99.90;;;;;;5035429;28;20839;-63
2020/12/19 00:38:58;;;;;;;3.43;3.23;;;5.50;99.90;;;;;;5035686;28;20492;-63
2020/12/19 00:41:26;;;;;;;3.50;3.20;;;5.50;99.90;;;;;;5035543;28;20459;-63
2020/12/19 00:43:52;;;;;;;3.63;3.33;;;5.40;99.90;;;;;;5035614;28;20450;-63
2020/12/19 00:46:19;;;;;;;5.60;3.10;;;5.40;99.90;;;;;;5035542;28;20446;-63
2020/12/19 00:48:46;;;;;;;4.53;3.70;;;5.40;99.90;;;;;;5035495;28;20446;-63
2020/12/19 00:51:12;;;;;;;4.40;3.33;;;5.40;99.90;;;;;;5035320;28;20490;-63
2020/12/19 00:53:40;;;;;;;3.40;3.10;;;5.40;99.90;;;;;;5035422;28;20442;-63
2020/12/19 00:56:07;;;;;;;3.73;3.43;;;5.50;99.90;;;;;;5034670;28;20822;-63
2020/12/19 00:58:33;;;;;;;4.57;3.87;;;5.60;99.90;;;;;;5035528;28;20446;-63
2020/12/19 01:00:59;;;;;;;4.10;3.37;;;5.60;99.90;;;;;;5035251;28;20803;-63
2020/12/19 01:03:26;;;;;;;6.13;3.77;;;5.50;99.90;;;;;;5035203;28;20477;-63
2020/12/19 01:05:52;;;;;;;4.77;4.00;;;5.50;99.90;;;;;;5035288;28;20465;-63
2020/12/19 01:08:18;;;;;;;4.83;3.50;;;5.50;99.90;;;;;;5034924;28;20446;-63
2020/12/19 01:10:45;;;;;;;3.70;3.40;;;5.40;99.90;;;;;;5034933;28;20485;-63
2020/12/19 01:13:11;;;;;;;5.97;4.40;;;5.40;99.90;;;;;;5035059;28;20446;-63
2020/12/19 01:15:37;;;;;;;4.60;3.87;;;5.40;99.90;;;;;;5034987;28;20449;-63
2020/12/19 01:18:03;;;;;;;4.00;3.70;;;5.40;99.90;;;;;;5035193;28;20446;-63
2020/12/19 01:20:30;;;;;;;4.33;3.90;;;5.40;99.90;;;;;;5034799;28;20438;-63
2020/12/19 01:22:56;;;;;;;5.83;4.03;;;5.40;99.90;;;;;;5035140;28;20435;-63
2020/12/19 01:25:22;;;;;;;4.03;3.67;;;5.40;99.90;;;;;;5034940;28;20451;-63
2020/12/19 01:27:49;;;;;;;4.40;3.90;;;5.40;99.90;;;;;;5034772;28;20459;-63
2020/12/19 01:30:15;;;;;;;4.07;3.20;;;5.60;99.90;;;;;;5034355;28;20998;-63
2020/12/19 01:32:41;;;;;;;3.50;3.20;;;5.60;99.90;;;;;;5034589;28;20494;-63
2020/12/19 01:35:08;;;;;;;3.37;3.10;;;5.70;99.90;;;;;;5034308;28;20449;-62
2020/12/19 01:37:34;;;;;;;5.03;3.17;;;5.60;99.90;;;;;;5034563;28;20457;-63
2020/12/19 01:40:00;;;;;;;3.33;3.00;;;5.70;99.90;;;;;;5034372;28;20458;-63
2020/12/19 01:42:26;;;;;;;3.37;3.07;;;5.70;99.90;;;;;;5034433;28;20830;-63
2020/12/19 01:44:53;;;;;;;3.83;3.27;;;5.70;99.90;;;;;;5034181;28;20849;-63
2020/12/19 01:47:21;;;;;;;5.70;3.30;;;5.80;99.90;;;;;;5034363;28;20443;-63
2020/12/19 01:49:48;;;;;;;4.17;3.50;;;5.80;99.90;;;;;;5034230;28;20446;-63
2020/12/19 01:52:18;;;;;;;3.30;3.10;;;5.90;99.90;;;;;;5034208;28;20473;-63
2020/12/19 01:54:45;;;;;;;3.70;3.27;;;5.90;99.90;;;;;;5034276;28;20431;-63
2020/12/19 01:57:13;;;;;;;3.77;3.40;;;5.90;99.90;;;;;;5033892;28;20447;-63
2020/12/19 01:59:40;;;;;;;4.10;3.20;;;5.90;99.90;;;;;;5034391;28;20487;-63
2020/12/19 02:02:08;;;;;;;3.50;3.20;;;5.80;99.90;;;;;;5034026;28;20467;-63
2020/12/19 02:04:35;;;;;;;4.70;3.50;;;5.80;99.90;;;;;;5034859;28;20762;-63
2020/12/19 02:07:03;;;;;;;3.13;2.93;;;5.70;99.90;;;;;;5033914;28;20447;-63
2020/12/19 02:09:34;;;;;;;2.83;2.63;;;5.70;99.90;;;;;;5034022;28;20845;-63
2020/12/19 02:12:01;;;;;;;3.60;3.10;;;5.70;99.90;;;;;;5034193;28;20459;-63
2020/12/19 02:14:29;;;;;;;3.50;2.83;;;5.70;99.90;;;;;;5033898;28;20439;-63
2020/12/19 02:16:57;;;;;;;3.93;3.00;;;5.60;99.90;;;;;;5033851;28;20529;-63
2020/12/19 02:19:25;;;;;;;5.13;3.33;;;5.70;99.90;;;;;;5033745;28;20942;-63
2020/12/19 02:21:51;;;;;;;3.60;3.13;;;5.80;99.90;;;;;;5033450;28;20463;-63
2020/12/19 02:24:19;;;;;;;4.80;3.40;;;5.80;99.90;;;;;;5033705;28;20446;-63
2020/12/19 02:26:46;;;;;;;3.27;2.90;;;5.80;99.90;;;;;;5033356;28;20483;-62
2020/12/19 02:29:12;;;;;;;4.57;3.63;;;5.80;99.90;;;;;;5033636;28;20529;-63
2020/12/19 02:31:38;;;;;;;3.33;3.03;;;5.80;99.90;;;;;;5033520;28;20482;-62
2020/12/19 02:34:05;;;;;;;2.83;2.63;;;5.80;99.90;;;;;;5033306;28;20954;-63
2020/12/19 02:36:31;;;;;;;3.37;2.90;;;5.80;99.90;;;;;;5033542;28;20454;-63
2020/12/19 02:38:57;;;;;;;3.33;3.03;;;5.80;99.90;;;;;;5033918;28;20455;-63
2020/12/19 02:41:24;;;;;;;3.70;3.00;;;5.70;99.90;;;;;;5033477;28;20520;-63
2020/12/19 02:43:54;;;;;;;4.80;2.73;;;5.80;99.90;;;;;;5033474;28;20493;-62
2020/12/19 02:46:20;;;;;;;4.03;2.83;;;5.90;99.90;;;;;;5033110;28;20967;-63
2020/12/19 02:48:47;;;;;;;8.30;3.40;;;6.00;99.90;;;;;;5033412;28;20446;-63
2020/12/19 02:51:13;;;;;;;4.50;3.60;;;6.00;99.90;;;;;;5033236;28;20490;-63
2020/12/19 02:53:40;;;;;;;3.23;2.83;;;6.00;99.90;;;;;;5033570;28;20446;-63
2020/12/19 02:56:06;;;;;;;5.10;2.97;;;6.00;99.90;;;;;;5033013;28;20954;-63
2020/12/19 02:58:33;;;;;;;4.17;3.23;;;6.00;99.90;;;;;;5033278;28;20458;-63
2020/12/19 03:01:00;;;;;;;4.77;3.40;;;6.00;99.90;;;;;;5033251;28;20830;-63
2020/12/19 03:03:26;;;;;;;4.50;3.50;;;6.00;99.90;;;;;;5033284;28;20496;-63
2020/12/19 03:05:52;;;;;;;5.10;3.10;;;6.00;99.90;;;;;;5033246;28;20443;-63
2020/12/19 03:08:19;;;;;;;3.27;2.97;;;6.00;99.90;;;;;;5033244;28;20442;-63
2020/12/19 03:10:45;;;;;;;4.53;3.30;;;6.00;99.90;;;;;;5033059;28;20486;-63
2020/12/19 03:13:11;;;;;;;4.43;3.20;;;6.00;99.90;;;;;;5033171;28;20529;-63
2020/12/19 03:15:38;;;;;;;5.70;4.13;;;5.90;99.90;;;;;;5033139;28;20561;-63
2020/12/19 03:18:04;;;;;;;3.70;3.40;;;5.90;99.90;;;;;;5033157;28;20969;-63
2020/12/19 03:20:30;;;;;;;3.97;3.43;;;5.80;99.90;;;;;;5037079;28;20814;-63
2020/12/19 03:22:57;;;;;;;3.77;3.47;;;5.80;99.90;;;;;;5037129;28;20445;-63
2020/12/19 03:25:23;;;;;;;4.70;3.10;;;5.80;99.90;;;;;;5037164;28;20442;-63
2020/12/19 03:27:49;;;;;;;5.00;3.23;;;5.80;99.90;;;;;;5036993;28;20454;-63
2020/12/19 03:30:15;;;;;;;5.03;3.43;;;5.70;99.90;;;;;;5036894;28;20533;-63
2020/12/19 03:32:42;;;;;;;8.73;3.70;;;5.70;99.90;;;;;;5037138;28;20469;-63
2020/12/19 03:35:08;;;;;;;3.30;3.00;;;5.60;99.90;;;;;;5036601;28;20447;-63
2020/12/19 03:37:34;;;;;;;3.63;3.30;;;5.60;99.90;;;;;;5036536;28;20802;-63
2020/12/19 03:40:01;;;;;;;4.90;2.93;;;5.50;99.90;;;;;;5036791;28;20572;-62
2020/12/19 03:42:27;;;;;;;3.53;3.23;;;5.60;99.90;;;;;;5036401;28;20985;-63
2020/12/19 03:44:53;;;;;;;5.67;3.90;;;5.50;99.90;;;;;;5036708;28;20453;-63
2020/12/19 03:47:19;;;;;;;3.47;3.17;;;5.50;99.90;;;;;;5036650;28;20454;-63
2020/12/19 03:49:46;;;;;;;3.40;3.10;;;5.60;99.90;;;;;;5036553;28;20449;-63
2020/12/19 03:52:12;;;;;;;4.20;2.80;;;5.60;99.90;;;;;;5036184;28;20889;-63
2020/12/19 03:54:39;;;;;;;3.73;3.23;;;5.60;99.90;;;;;;5036523;28;20449;-64
2020/12/19 03:57:05;;;;;;;3.87;3.20;;;5.50;99.90;;;;;;5036438;28;20968;-62
2020/12/19 03:59:31;;;;;;;3.27;2.97;;;5.50;99.90;;;;;;5036442;28;20454;-63
2020/12/19 04:01:57;;;;;;;5.60;3.73;;;5.50;99.90;;;;;;5036298;28;20459;-63
2020/12/19 04:04:23;;;;;;;4.30;3.37;;;5.50;99.90;;;;;;5036378;28;20442;-62
2020/12/19 04:06:50;;;;;;;3.13;2.90;;;5.50;99.90;;;;;;5036405;28;20481;-63
2020/12/19 04:09:16;;;;;;;3.07;2.87;;;5.50;99.90;;;;;;5035917;28;21000;-63
2020/12/19 04:11:43;;;;;;;3.90;3.50;;;5.50;99.90;;;;;;5036022;28;20850;-63
2020/12/19 04:14:09;;;;;;;4.97;2.97;;;5.60;99.90;;;;;;5035943;28;20435;-63
2020/12/19 04:16:35;;;;;;;5.90;2.90;;;5.60;99.90;;;;;;5036139;28;20447;-63
2020/12/19 04:19:01;;;;;;;4.40;3.23;;;5.50;99.90;;;;;;5036098;28;20453;-63
2020/12/19 04:21:27;;;;;;;3.93;3.53;;;5.50;99.90;;;;;;5036133;28;20474;-63
2020/12/19 04:23:54;;;;;;;3.33;3.10;;;5.50;99.90;;;;;;5035909;28;20477;-63
2020/12/19 04:26:20;;;;;;;4.50;4.10;;;5.50;99.90;;;;;;5035715;28;21020;-63
2020/12/19 04:28:47;;;;;;;5.60;3.27;;;5.50;99.90;;;;;;5035608;28;20842;-63
2020/12/19 04:31:13;;;;;;;3.63;3.33;;;5.60;99.90;;;;;;5033998;28;20490;-63
2020/12/19 04:33:39;;;;;;;4.53;3.33;;;5.50;99.90;;;;;;5035511;28;20485;-63
2020/12/19 04:36:05;;;;;;;5.37;4.00;;;5.40;99.90;;;;;;5035761;28;20514;-63
2020/12/19 04:38:32;;;;;;;4.53;3.53;;;5.40;99.90;;;;;;5035400;28;20946;-63
2020/12/19 04:40:59;;;;;;;3.70;3.40;;;5.40;99.90;;;;;;5035599;28;20870;-62
2020/12/19 04:43:26;;;;;;;4.33;3.47;;;5.50;99.90;;;;;;5035606;28;20449;-63
2020/12/19 04:45:55;;;;;;;6.50;3.70;;;5.40;99.90;;;;;;5035557;28;20957;-63
2020/12/19 04:48:23;;;;;;;5.13;4.07;;;5.40;99.90;;;;;;5035249;28;20939;-63
2020/12/19 04:50:49;;;;;;;5.80;3.43;;;5.40;99.90;;;;;;5035364;28;20580;-62
2020/12/19 04:53:18;;;;;;;3.43;3.10;;;5.30;99.90;;;;;;5035429;28;21001;-63
2020/12/19 04:55:46;;;;;;;3.40;2.97;;;5.30;99.90;;;;;;5035628;28;20456;-62
2020/12/19 04:58:15;;;;;;;4.60;3.33;;;5.10;99.90;;;;;;5035354;28;20446;-63
2020/12/19 05:00:42;;;;;;;3.43;3.13;;;5.00;99.90;;;;;;5034963;28;21016;-63
2020/12/19 05:03:09;;;;;;;7.50;4.20;;;5.00;99.90;;;;;;5035260;28;20458;-63
2020/12/19 05:05:36;;;;;;;4.27;3.30;;;4.90;99.90;;;;;;5035201;28;20447;-63
2020/12/19 05:08:02;;;;;;;4.80;3.43;;;4.90;99.90;;;;;;5035063;28;20454;-63
2020/12/19 05:10:29;;;;;;;4.20;3.30;;;4.90;99.90;;;;;;5034949;28;20485;-63
2020/12/19 05:12:55;;;;;;;3.80;3.40;;;4.90;99.90;;;;;;5035344;28;20449;-63
2020/12/19 05:15:23;;;;;;;7.03;4.13;;;4.70;99.90;;;;;;5034694;28;20849;-63
2020/12/19 05:17:52;;;;;;;3.93;3.50;;;4.70;99.90;;;;;;5034990;28;20469;-68
2020/12/19 05:20:20;;;;;;;3.40;3.10;;;4.70;99.90;;;;;;5035147;28;20481;-62
2020/12/19 05:22:48;;;;;;;7.57;4.03;;;4.80;99.90;;;;;;5034809;28;20466;-62
2020/12/19 05:25:16;;;;;;;5.10;3.67;;;4.90;99.90;;;;;;5034522;28;20450;-62
2020/12/19 05:27:43;;;;;;;3.90;3.57;;;5.00;99.90;;;;;;5034568;28;20482;-63
2020/12/19 05:30:09;;;;;;;5.70;4.20;;;5.10;99.90;;;;;;5034665;28;20879;-62
2020/12/19 05:32:43;;;;;;;5.70;3.97;;;5.30;99.90;;;;;;5034622;28;20500;-63
2020/12/19 05:35:10;;;;;;;4.57;3.40;;;5.30;99.90;;;;;;5034701;28;20438;-62
2020/12/19 05:37:36;;;;;;;6.53;3.43;;;5.40;99.90;;;;;;5034622;28;20505;-63
2020/12/19 05:40:08;;;;;;;5.83;3.80;;;5.40;99.90;;;;;;5034231;28;20973;-63
2020/12/19 05:42:34;;;;;;;5.97;3.70;;;5.50;99.90;;;;;;5034040;28;20466;-63
2020/12/19 05:45:00;;;;;;;5.10;3.70;;;5.50;99.90;;;;;;5034156;28;20948;-63
2020/12/19 05:47:26;;;;;;;4.00;3.13;;;5.50;99.90;;;;;;5034420;28;20497;-63
2020/12/19 05:49:54;;;;;;;4.53;3.20;;;5.60;99.90;;;;;;5034378;28;20439;-63
2020/12/19 05:52:23;;;;;;;3.50;3.20;;;5.60;99.90;;;;;;5034682;28;20544;-63
2020/12/19 05:54:53;;;;;;;5.53;3.50;;;5.60;99.90;;;;;;5034610;28;20941;-63
2020/12/19 05:57:21;;;;;;;3.50;3.20;;;5.60;99.90;;;;;;5034871;28;20455;-62
2020/12/19 05:59:48;;;;;;;4.47;3.37;;;5.60;99.90;;;;;;5034161;28;20434;-62
2020/12/19 06:02:17;;;;;;;3.23;2.77;;;5.60;99.90;;;;;;5034049;28;20501;-62
2020/12/19 06:04:46;;;;;;;4.23;3.40;;;5.60;99.90;;;;;;5033823;28;20822;-62
2020/12/19 06:07:13;;;;;;;3.80;3.47;;;5.60;99.90;;;;;;5034081;28;20445;-62
2020/12/19 06:09:41;;;;;;;4.90;3.30;;;5.50;99.90;;;;;;5034059;28;20456;-62
2020/12/19 06:12:13;;;;;;;3.43;3.13;;;5.50;99.90;;;;;;5033857;28;20910;-63
2020/12/19 06:14:41;;;;;;;3.07;2.70;;;5.40;99.90;;;;;;5034005;28;20431;-63
2020/12/19 06:17:16;;;;;;;3.30;2.93;;;5.30;99.90;;;;;;5033871;28;20801;-63
2020/12/19 06:19:43;;;;;;;3.60;3.27;;;5.20;99.90;;;;;;5033890;28;20430;-63
2020/12/19 06:22:10;;;;;;;4.03;2.50;;;5.10;99.90;;;;;;5033744;28;20838;-63
2020/12/19 06:24:44;;;;;;;3.70;3.40;;;5.00;99.90;;;;;;5033748;28;20450;-63
2020/12/19 06:27:38;;;;;;;8.43;3.20;;;4.90;99.90;;;;;;5033361;28;20501;-63
2020/12/19 06:30:04;;;;;;;4.13;2.93;;;4.90;99.90;;;;;;5033673;28;20805;-62
2020/12/19 06:32:31;;;;;;;3.37;2.93;;;4.80;99.90;;;;;;5033537;28;20470;-62
2020/12/19 06:34:59;;;;;;;3.10;2.80;;;4.80;99.90;;;;;;5033276;28;20454;-63
2020/12/19 06:37:26;;;;;;;3.00;2.70;;;4.70;99.90;;;;;;5033584;28;20536;-63
2020/12/19 06:40:10;;;;;;;2.80;2.57;;;4.70;99.90;;;;;;5033438;28;20442;-62
2020/12/19 06:42:37;;;;;;;4.83;2.47;;;4.70;99.90;;;;;;5033413;28;20467;-62
2020/12/19 06:45:23;;;;;;;2.90;2.60;;;4.80;99.90;;;;;;5033325;28;20442;-62
2020/12/19 06:47:50;;;;;;;4.43;2.70;;;4.80;99.90;;;;;;5033407;28;20815;-63
2020/12/19 06:50:16;;;;;;;3.13;2.70;;;4.90;99.90;;;;;;5033313;28;20860;-62
2020/12/19 06:52:53;;;;;;;6.43;2.40;;;4.90;99.90;;;;;;5032693;28;20512;-63
2020/12/19 06:55:21;;;;;;;2.80;2.60;;;5.00;99.90;;;;;;5033335;28;20518;-62
2020/12/19 06:57:51;;;;;;;2.73;2.23;;;5.10;99.90;;;;;;5033283;28;20446;-62
2020/12/19 07:00:18;;;;;;;3.07;2.77;;;5.20;99.90;;;;;;5033278;28;20517;-62
2020/12/19 07:02:52;;;;;;;4.90;2.60;;;5.10;99.90;;;;;;5033197;28;20516;-63
2020/12/19 07:05:23;;;;;;;2.83;2.53;;;5.10;99.90;;;;;;5034083;28;20453;-62
2020/12/19 07:07:49;;;;;;;2.57;2.37;;;5.20;99.90;;;;;;5033521;28;20430;-63
2020/12/19 07:10:16;;;;;;;3.23;2.50;;;5.30;99.90;;;;;;5032822;28;20438;-62
2020/12/19 07:12:43;;;;;;;3.57;2.57;;;5.40;99.90;;;;;;5033080;28;20462;-63
2020/12/19 07:15:30;;;;;;;3.13;2.77;;;5.40;99.90;;;;;;5033310;28;20529;-63
2020/12/19 07:17:56;;;;;;;2.93;2.73;;;5.30;99.90;;;;;;5032731;28;20451;-63
2020/12/19 07:20:23;;;;;;;2.87;2.60;;;5.10;99.90;;;;;;5033131;28;20446;-62
2020/12/19 07:22:50;;;;;;;3.87;2.37;;;5.00;99.90;;;;;;5033138;28;20446;-63
2020/12/19 07:25:16;;;;;;;2.80;2.60;;;5.00;99.90;;;;;;5033260;28;20454;-63
2020/12/19 07:27:44;;;;;;;3.37;2.50;;;5.00;99.90;;;;;;5032856;28;20490;-62
2020/12/19 07:30:10;;;;;;;3.47;2.67;;;4.90;99.90;;;;;;5032961;28;20447;-62
2020/12/19 07:32:36;;;;;;;2.93;2.43;;;4.90;99.90;;;;;;5032920;28;20470;-62
2020/12/19 07:35:03;;;;;;;2.23;2.10;;;4.90;99.90;;;;;;5032969;28;20443;-63
2020/12/19 07:37:32;;;;;;;2.47;2.27;;;4.80;99.90;;;;;;5032694;28;20969;-62
2020/12/19 07:40:06;;;;;;;2.63;2.40;;;4.80;99.90;;;;;;5032975;28;20450;-63
2020/12/19 07:42:32;;;;;;;1.93;1.83;;;4.90;99.90;;;;;;5032759;28;21007;-62
2020/12/19 07:45:00;;;;;;;5.20;2.93;;;4.90;99.90;;;;;;5032886;28;20443;-63
2020/12/19 07:47:26;;;;;;;2.83;2.63;;;5.00;99.90;;;;;;5032884;28;20443;-63
2020/12/19 07:49:52;;;;;;;2.97;2.20;;;5.10;99.90;;;;;;5033393;28;20492;-63
2020/12/19 07:52:20;;;;;;;2.53;2.33;;;5.20;99.90;;;;;;5032802;28;20620;-62
2020/12/19 07:54:58;;;;;;;3.30;2.90;;;5.30;99.90;;;;;;5032863;28;20431;-62
2020/12/19 07:57:25;;;;;;;3.10;2.00;;;5.30;99.90;;;;;;5032529;28;20802;-63
2020/12/19 07:59:53;;;;;;;2.80;2.33;;;5.30;99.90;;;;;;5032836;28;20424;-63
2020/12/19 08:02:21;;;;;;;2.30;2.10;;;5.30;99.90;;;;;;5032715;28;20505;-62
2020/12/19 08:04:52;;;;;;;3.30;2.40;;;5.30;99.90;;;;;;5034109;28;20454;-63
2020/12/19 08:07:20;;;;;;;2.83;2.37;;;5.30;99.90;;;;;;5036348;28;20434;-63
2020/12/19 08:09:46;;;;;;;2.30;1.87;;;5.30;99.90;;;;;;5036330;28;20793;-63
2020/12/19 08:12:13;;;;;;;5.37;2.20;;;5.30;99.90;;;;;;5036372;28;20569;-63
2020/12/19 08:14:41;;;;;;;4.00;3.00;;;5.30;99.90;;;;;;5035946;28;20918;-63
2020/12/19 08:17:12;;;;;;;2.43;2.23;;;5.30;99.90;;;;;;5036128;28;20413;-63
2020/12/19 08:19:42;;;;;;;2.23;2.03;;;5.20;99.90;;;;;;5035821;28;20530;-62
2020/12/19 08:22:09;;;;;;;7.60;2.80;;;5.20;99.90;;;;;;5036022;28;20463;-63
2020/12/19 08:24:36;;;;;;;2.50;2.30;;;5.30;99.90;;;;;;5036305;28;20398;-63
2020/12/19 08:27:28;;;;;;;2.60;2.20;;;5.30;99.90;;;;;;5035773;28;20483;-62
2020/12/19 08:30:14;;;;;;;2.40;2.20;;;5.50;99.90;;;;;;5035659;28;20434;-63
2020/12/19 08:32:43;;;;;;;3.07;1.77;;;5.60;99.90;;;;;;5035792;28;20458;-62
2020/12/19 08:35:16;;;;;;;2.30;1.90;;;5.70;99.90;;;;;;5035805;28;20442;-63
2020/12/19 08:37:42;;;;;;;2.67;2.30;;;5.70;99.90;;;;;;5035810;28;20441;-62
2020/12/19 08:40:11;;;;;;;2.67;2.10;;;5.70;99.90;;;;;;5036074;28;20450;-63
2020/12/19 08:42:39;;;;;;;2.40;1.87;;;5.70;99.90;;;;;;5035575;28;20462;-70
2020/12/19 08:45:23;;;;;;;2.73;2.10;;;5.70;99.90;;;;;;5035498;28;20828;-70
2020/12/19 08:47:54;;;;;;;2.47;2.27;;;5.70;99.90;;;;;;5035589;28;20787;-70
2020/12/19 08:50:27;;;;;;;2.30;2.17;;;5.70;99.90;;;;;;5035731;28;20434;-70
2020/12/19 08:53:04;;;;;;;3.63;2.20;;;5.70;99.90;;;;;;5035153;28;20957;-70
2020/12/19 08:55:31;;;;;;;6.10;4.00;;;5.80;99.90;;;;;;5035456;28;20434;-70
2020/12/19 08:57:57;;;;;;;5.33;2.33;;;5.80;99.90;;;;;;5035336;28;20447;-69
2020/12/19 09:00:23;;;;;;;2.03;1.83;;;5.90;99.90;;;;;;5035259;28;20443;-70
2020/12/19 09:02:50;;;;;;;4.33;2.33;;;6.10;99.90;;;;;;5035311;28;20863;-70
2020/12/19 09:05:31;;;;;;;2.30;1.90;;;6.20;99.90;;;;;;5035262;28;20446;-70
2020/12/19 09:07:58;;;;;;;2.97;2.20;;;6.40;99.90;;;;;;5034898;28;20808;-70
2020/12/19 09:10:28;;;;;;;2.60;2.00;;;6.50;99.90;;;;;;5035098;28;20847;-70
2020/12/19 09:13:19;;;;;;;3.33;2.33;;;6.70;99.90;;;;;;5035119;28;20431;-70
2020/12/19 09:15:48;;;;;;;2.37;2.17;;;7.00;99.90;;;;;;5034338;28;20427;-70
2020/12/19 09:18:25;;;;;;;6.40;4.90;;;7.20;99.90;;;;;;5034848;28;20457;-70
2020/12/19 09:20:55;;;;;;;2.00;1.70;;;7.60;99.90;;;;;;5034914;28;20466;-70
2020/12/19 09:23:22;;;;;;;2.17;2.07;;;8.20;99.90;;;;;;5035921;28;20451;-70
2020/12/19 09:25:49;;;;;;;1.67;1.57;;;9.60;99.90;;;;;;5034577;28;20490;-70
2020/12/19 09:28:15;;;;;;;2.30;2.00;;;11.70;99.90;;;;;;5034843;28;20843;-70
2020/12/19 09:30:42;;;;;;;1.70;1.60;;;14.10;99.90;;;;;;5034571;28;20478;-70
2020/12/19 09:33:08;;;;;;;1.63;1.53;;;16.60;92.40;;;;;;5034697;28;20501;-70
2020/12/19 09:35:35;;;;;;;1.70;1.60;;;18.80;75.20;;;;;;5034712;28;20442;-70
2020/12/19 09:38:02;;;;;;;1.60;1.50;;;20.40;60.50;;;;;;5034675;28;20438;-70
2020/12/19 09:40:28;;;;;;;1.50;1.40;;;21.90;53.80;;;;;;5034508;28;20469;-70
2020/12/19 09:42:55;;;;;;;1.87;1.70;;;22.90;49.60;;;;;;5034485;28;20446;-70
2020/12/19 09:45:21;;;;;;;1.27;1.27;;;23.70;47.50;;;;;;5034907;28;20257;-71
2020/12/19 09:47:47;;;;;;;1.92;1.83;;;24.00;46.20;;;;;;5034351;28;20210;-71
2020/12/19 09:50:14;;;;;;;1.58;1.50;;;24.60;44.90;;;;;;5034454;28;20214;-71
2020/12/19 09:52:41;;;;;;;3.25;1.75;;;24.60;43.40;;;;;;5034284;28;20227;-71
2020/12/19 09:55:09;;;;;;;1.77;1.67;;;24.70;42.00;;;;;;5034505;28;20200;-71
2020/12/19 09:57:36;;;;;;;1.30;1.20;;;25.20;40.90;;;;;;5034001;28;20682;-71
2020/12/19 10:00:04;;;;;;;1.42;1.33;;;25.30;39.70;;;;;;5034595;28;20207;-71
2020/12/19 10:02:30;;;;;;;1.42;1.33;;;24.90;40.90;;;;;;5033927;28;20225;-71
2020/12/19 10:04:56;;;;;;;0.98;0.98;;;24.70;40.30;;;;;;5034385;28;20210;-71
2020/12/19 10:07:22;;;;;;;1.13;1.13;;;24.60;40.90;;;;;;5034734;28;20203;-71
2020/12/19 10:09:48;;;;;;;1.42;1.33;;;24.40;41.00;;;;;;5034127;28;20203;-71
2020/12/19 10:12:15;;;;;;;1.25;1.10;;;24.40;41.30;;;;;;5033867;28;20231;-71
2020/12/19 10:14:42;;;;;;;1.70;1.60;;;24.60;41.70;;;;;;5033693;28;20663;-71
2020/12/19 10:17:08;;;;;;;2.30;2.05;;;25.00;41.50;;;;;;5033960;28;20206;-71
2020/12/19 10:19:34;;;;;;;2.13;2.03;;;25.40;40.40;;;;;;5033573;28;20204;-71
2020/12/19 10:22:00;;;;;;;1.85;1.60;;;26.30;39.20;;;;;;5033388;28;20223;-71
2020/12/19 10:24:27;;;;;;;1.67;1.58;;;27.00;36.90;;;;;;5033824;28;20223;-70
2020/12/19 10:26:53;;;;;;;1.80;1.70;;;27.30;37.50;;;;;;5033467;28;20235;-70
2020/12/19 10:29:21;;;;;;;1.80;1.70;;;27.70;36.90;;;;;;5033695;28;20210;-71
2020/12/19 10:31:47;;;;;;;1.48;1.33;;;28.30;34.90;;;;;;5033571;28;20633;-71
2020/12/19 10:34:13;;;;;;;1.55;1.45;;;28.80;34.10;;;;;;5033684;28;20287;-71
2020/12/19 10:36:39;;;;;;;2.08;1.98;;;29.40;32.90;;;;;;5033463;28;20617;-71
2020/12/19 10:39:06;;;;;;;1.40;1.30;;;29.80;32.00;;;;;;5033583;28;20228;-71
2020/12/19 10:41:32;;;;;;;1.00;1.00;;;30.00;31.10;;;;;;5033468;28;20219;-71
2020/12/19 10:43:59;;;;;;;1.20;1.13;;;29.80;30.90;;;;;;5033508;28;20215;-71
2020/12/19 10:46:28;;;;;;;1.40;1.40;;;29.70;30.40;;;;;;5033470;28;20258;-71
2020/12/19 10:48:54;;;;;;;1.05;0.98;;;29.60;30.60;;;;;;5033701;28;20301;-71
2020/12/19 10:51:26;;;;;;;1.17;1.08;;;29.50;30.90;;;;;;5033018;28;20626;-71
2020/12/19 10:53:52;;;;;;;1.08;1.08;;;29.00;30.90;;;;;;5033465;28;20275;-70
2020/12/19 10:56:19;;;;;;;0.90;0.90;;;28.80;31.30;;;;;;5033360;28;20191;-71
2020/12/19 10:58:45;;;;;;;1.10;1.10;;;28.70;30.80;;;;;;5033385;28;20189;-71
2020/12/19 11:01:11;;;;;;;0.90;0.90;;;28.50;31.50;;;;;;5033262;28;20227;-71
2020/12/19 11:03:40;;;;;;;1.70;1.00;;;27.70;30.90;;;;;;5032995;28;20673;-70
2020/12/19 11:06:06;;;;;;;1.20;1.13;;;26.90;33.00;;;;;;5033312;28;20564;-71
2020/12/19 11:08:33;;;;;;;1.48;1.20;;;26.60;32.40;;;;;;5033308;28;20249;-70
2020/12/19 11:10:59;;;;;;;2.10;2.00;;;24.70;35.10;;;;;;5033176;28;20230;-71
2020/12/19 11:13:25;;;;;;;2.25;1.10;;;22.90;36.70;;;;;;5033276;28;20196;-70
2020/12/19 11:15:51;;;;;;;1.25;1.15;;;21.40;38.60;;;;;;5032931;28;20639;-70
2020/12/19 11:18:17;;;;;;;1.65;1.30;;;20.30;39.70;;;;;;5032855;28;20558;-70
2020/12/19 11:20:44;;;;;;;1.17;1.17;;;19.50;42.50;;;;;;5032805;28;20636;-70
2020/12/19 11:23:10;;;;;;;1.10;1.00;;;18.70;43.30;;;;;;5032857;28;20830;-70
2020/12/19 11:25:36;;;;;;;2.13;2.03;;;18.00;44.90;;;;;;5032989;28;20506;-70
2020/12/19 11:28:03;;;;;;;2.73;1.00;;;17.50;47.50;;;;;;5033313;28;20447;-70
2020/12/19 11:30:29;;;;;;;1.23;1.13;;;17.40;48.70;;;;;;5033068;28;20446;-70
2020/12/19 11:32:55;;;;;;;0.90;0.90;;;17.40;48.10;;;;;;5033080;28;20427;-71
2020/12/19 11:35:21;;;;;;;1.23;1.00;;;17.70;47.70;;;;;;5033100;28;20481;-71
2020/12/19 11:37:48;;;;;;;2.10;1.30;;;17.70;47.00;;;;;;5033062;28;20437;-71
2020/12/19 11:40:14;;;;;;;3.27;1.40;;;18.00;47.30;;;;;;5035224;28;20525;-71
2020/12/19 11:42:40;;;;;;;1.23;1.23;;;18.60;47.40;;;;;;5036842;28;20520;-71
2020/12/19 11:45:07;;;;;;;1.30;1.30;;;19.00;46.80;;;;;;5036529;28;20906;-71
2020/12/19 11:47:33;;;;;;;1.53;1.30;;;20.40;44.40;;;;;;5036799;28;20430;-71
2020/12/19 11:50:00;;;;;;;1.17;1.10;;;22.30;42.20;;;;;;5036735;28;20434;-71
2020/12/19 11:52:27;;;;;;;2.90;1.08;;;23.90;40.00;;;;;;5036576;28;20259;-71
2020/12/19 11:54:53;;;;;;;1.35;1.25;;;24.60;39.20;;;;;;5036697;28;20188;-71
2020/12/19 11:57:20;;;;;;;1.20;1.20;;;24.70;38.10;;;;;;5036625;28;20246;-71
2020/12/19 11:59:46;;;;;;;1.60;1.55;;;23.30;40.10;;;;;;5036568;28;20192;-71
2020/12/19 12:02:12;;;;;;;2.47;2.07;;;21.60;41.70;;;;;;5036376;28;20733;-71
2020/12/19 12:04:38;;;;;;;2.03;1.83;;;20.00;44.90;;;;;;5036175;28;20636;-71
2020/12/19 12:07:04;;;;;;;2.03;1.83;;;18.50;46.80;;;;;;5036459;28;20426;-71
2020/12/19 12:09:30;;;;;;;4.13;1.60;;;17.40;49.40;;;;;;5036464;28;20435;-71
2020/12/19 12:12:01;;;;;;;1.57;1.47;;;16.60;50.10;;;;;;5036169;28;20482;-71
2020/12/19 12:14:28;;;;;;;1.37;1.27;;;15.80;51.20;;;;;;5036282;28;20427;-71
2020/12/19 12:16:54;;;;;;;3.77;1.90;;;15.20;53.10;;;;;;5036294;28;20426;-71
2020/12/19 12:19:20;;;;;;;2.20;1.60;;;14.80;53.00;;;;;;5036248;28;20431;-71
2020/12/19 12:21:46;;;;;;;1.57;1.40;;;14.40;54.60;;;;;;5036077;28;20466;-71
2020/12/19 12:24:12;;;;;;;3.30;1.70;;;14.20;55.70;;;;;;5036095;28;20430;-71
2020/12/19 12:26:39;;;;;;;1.40;1.30;;;13.80;56.40;;;;;;5035558;28;21012;-71
2020/12/19 12:29:06;;;;;;;4.13;1.80;;;13.50;58.40;;;;;;5036007;28;20434;-71
2020/12/19 12:31:35;;;;;;;1.93;1.73;;;13.30;58.00;;;;;;5035842;28;20585;-71
2020/12/19 12:34:01;;;;;;;2.20;1.73;;;13.10;60.40;;;;;;5035929;28;20480;-71
2020/12/19 12:36:29;;;;;;;1.90;1.70;;;12.90;60.00;;;;;;5035567;28;20795;-71
2020/12/19 12:38:56;;;;;;;1.60;1.50;;;12.90;60.10;;;;;;5035821;28;20475;-70
2020/12/19 12:41:22;;;;;;;2.10;1.93;;;12.90;59.80;;;;;;5035699;28;20466;-71
2020/12/19 12:43:48;;;;;;;2.77;2.00;;;12.80;61.00;;;;;;5035393;28;20847;-71
2020/12/19 12:46:17;;;;;;;2.83;1.93;;;12.70;62.20;;;;;;5035689;28;20441;-71
2020/12/19 12:48:43;;;;;;;1.90;1.80;;;12.50;63.40;;;;;;5035330;28;20482;-71
2020/12/19 12:51:10;;;;;;;1.50;1.40;;;12.40;63.80;;;;;;5034216;28;20486;-71
2020/12/19 12:53:37;;;;;;;2.00;1.37;;;12.40;62.10;;;;;;5035534;28;20799;-71
2020/12/19 12:56:04;;;;;;;1.33;1.23;;;12.40;61.20;;;;;;5035562;28;20454;-71
2020/12/19 12:58:30;;;;;;;1.33;1.20;;;12.50;60.70;;;;;;5036011;28;20438;-71